Ashland, Montana
Current Conditions -  °F | °C
As of 6:53 PM on Saturday 20 Dec 2014 (Local Time) from KMLS Reporting Station
Clear Clear  
Wind Chill: 30°   Ceiling: Unl
Heat Index: 34°   Visibility: 10mi
Dew Point: 21°   Wind: 5mph
Humidity: 59%   Direction: 150°SSE
Pressure: 29.78"   Gusts: NA
Location:  45.62°N, 106.31°W
Report Text: KMLS 210153Z AUTO 15004KT 10SM CLR 01/M06 A2978 RMK AO2 SLP108 T00111061
Loading
Personal Weather Stations






























Interactive Weather Map New forecast layout! Learn more

10-Day Weather Forecast

Advertisements
Track Severe Weather on mobile